Date,TemperatureHighF,TemperatureAvgF,TemperatureLowF,DewpointHighF,DewpointAvgF,DewpointLowF,HumidityHigh,HumidityAvg,HumidityLow,PressureMaxIn,PressureMinIn,WindSpeedMaxMPH,WindSpeedAvgMPH,GustSpeedMaxMPH,PrecipitationSumIn
2013-1-1,41.5,37.0,32.4,41.3,36.7,32.1,99,99,99,30.08,29.88,9,1,9,0.01
2013-1-2,43.9,32.5,26.2,33.0,28.5,22.9,99,86,46,30.15,30.06,8,0,8,0.00
2013-1-3,54.3,35.5,23.5,40.1,30.3,23.0,99,83,56,30.31,30.13,8,0,8,0.00
2013-1-4,47.7,32.4,25.3,38.7,28.5,24.9,99,86,48,30.36,30.20,3,0,3,0.00
2013-1-5,53.4,39.4,31.1,41.3,35.1,28.7,98,85,63,30.20,30.05,12,1,12,0.00
2013-1-6,60.1,41.2,29.8,39.7,31.5,24.7,99,73,37,30.22,30.11,13,2,13,0.00
2013-1-7,63.0,40.8,27.3,37.7,30.9,25.9,98,72,32,30.22,29.98,11,2,11,0.00
2013-1-8,60.8,43.5,32.0,46.5,38.5,29.4,99,84,53,30.04,29.88,11,4,11,0.31
2013-1-9,56.5,50.8,44.8,55.8,50.3,44.5,99,98,90,30.13,29.99,21,5,21,0.08
2013-1-10,67.3,54.2,46.8,66.5,53.7,46.5,99,98,90,30.00,29.66,22,5,22,0.07
2013-1-11,79.0,56.1,41.2,58.8,48.9,40.7,99,81,40,29.77,29.61,14,3,14,0.00
2013-1-12,56.1,48.1,36.1,55.6,47.8,35.7,99,99,96,29.77,29.54,15,4,15,0.59
2013-1-13,43.2,32.4,23.4,35.9,27.6,20.5,99,83,58,30.19,29.76,14,5,14,0.00
2013-1-14,47.1,30.7,20.1,28.0,21.9,17.7,92,72,44,30.30,30.13,11,1,11,0.00
2013-1-15,35.1,29.3,23.2,30.8,25.5,19.4,95,86,75,30.15,29.99,8,1,8,0.00
2013-1-16,52.5,35.5,22.8,30.7,24.9,21.8,98,68,36,30.09,29.96,9,0,9,0.00
2013-1-17,61.2,42.7,29.7,42.2,31.6,23.5,83,66,44,30.34,30.04,14,1,14,0.00
2013-1-18,69.3,44.1,28.4,44.0,33.2,28.0,99,70,32,30.36,30.09,8,0,8,0.00
2013-1-19,73.8,50.7,32.5,46.8,38.3,28.8,90,65,36,30.10,29.94,15,1,15,0.00
2013-1-20,74.1,51.3,35.2,47.7,40.7,34.6,99,71,37,30.10,29.94,11,1,11,0.00
2013-1-21,62.8,43.5,32.5,39.3,24.8,20.8,79,50,24,30.21,30.01,14,1,14,0.00
2013-1-22,53.6,37.0,27.5,31.9,25.7,21.3,79,65,41,30.22,30.08,12,1,12,0.00
2013-1-23,65.5,45.3,30.0,48.1,36.8,25.3,95,74,48,30.14,29.98,11,0,11,0.00
2013-1-24,48.4,43.0,33.1,44.7,34.6,26.6,99,73,54,30.14,29.98,19,2,19,0.00
2013-1-25,47.1,37.7,30.6,43.3,36.6,28.2,99,96,82,30.09,29.95,12,0,12,0.01
2013-1-26,53.2,43.3,32.5,43.4,36.2,32.1,99,78,48,30.12,30.01,11,1,11,0.00
2013-1-27,58.1,50.6,45.9,57.8,48.6,39.6,99,93,77,30.02,29.80,11,1,11,0.01
2013-1-28,79.5,67.4,55.9,69.0,63.7,55.7,99,89,69,29.86,29.69,13,2,13,0.00
2013-1-29,74.7,64.3,49.8,69.1,62.6,49.6,99,94,82,29.69,29.28,21,4,21,1.61
2013-1-30,49.8,40.5,29.8,49.6,35.8,27.0,99,84,61,29.92,29.37,21,3,21,0.01
2013-1-31,67.1,40.6,25.9,41.3,29.6,15.6,99,69,31,30.26,29.89,21,0,21,0.00